createdAt,value
2023-02-06T00:00:44.081Z,3.40
2023-02-06T00:02:46.773Z,3.38
2023-02-06T00:04:49.369Z,3.36
2023-02-06T00:06:52.039Z,3.32
2023-02-06T00:08:54.732Z,3.31
2023-02-06T00:10:57.331Z,3.32
2023-02-06T00:12:59.966Z,3.31
2023-02-06T00:15:04.033Z,3.34
2023-02-06T00:17:06.644Z,3.32
2023-02-06T00:19:09.230Z,3.29
2023-02-06T00:21:11.932Z,3.31
2023-02-06T00:23:14.525Z,3.31
2023-02-06T00:25:17.178Z,3.31
2023-02-06T00:27:19.754Z,3.31
2023-02-06T00:29:22.356Z,3.28
2023-02-06T00:31:26.372Z,3.30
2023-02-06T00:33:28.924Z,3.30
2023-02-06T00:35:31.523Z,3.28
2023-02-06T00:37:34.089Z,3.29
2023-02-06T00:39:37.031Z,3.31
2023-02-06T00:41:39.608Z,3.30
2023-02-06T00:43:43.437Z,3.29
2023-02-06T00:45:45.984Z,3.32
2023-02-06T00:47:49.973Z,3.32
2023-02-06T00:49:52.514Z,3.32
2023-02-06T00:51:55.168Z,3.32
2023-02-06T00:53:57.766Z,3.31
2023-02-06T00:56:00.490Z,3.30
2023-02-06T00:58:03.069Z,3.32
2023-02-06T01:00:07.468Z,3.32
2023-02-06T01:02:10.108Z,3.32
2023-02-06T01:04:14.063Z,3.30
2023-02-06T01:06:16.621Z,3.30
2023-02-06T01:08:19.149Z,3.28
2023-02-06T01:10:21.699Z,3.28
2023-02-06T01:12:24.378Z,3.29
2023-02-06T01:14:26.956Z,3.28
2023-02-06T01:16:29.641Z,3.28
2023-02-06T01:18:32.326Z,3.26
2023-02-06T01:20:36.514Z,3.30
2023-02-06T01:22:39.242Z,3.30
2023-02-06T01:24:41.814Z,3.29
2023-02-06T01:26:44.365Z,3.30
2023-02-06T01:28:48.840Z,3.30
2023-02-06T01:30:51.545Z,3.31
2023-02-06T01:32:54.089Z,3.29
2023-02-06T01:34:59.271Z,3.28
2023-02-06T01:37:03.430Z,3.26
2023-02-06T01:39:06.697Z,3.26
2023-02-06T01:41:10.500Z,3.29
2023-02-06T01:43:19.060Z,3.25
2023-02-06T01:45:40.750Z,3.25
2023-02-06T01:47:43.345Z,3.28
2023-02-06T01:49:50.591Z,3.27
2023-02-06T01:51:57.043Z,3.24
2023-02-06T01:54:04.774Z,3.26
2023-02-06T01:56:09.122Z,3.27
2023-02-06T01:58:15.525Z,3.29
2023-02-06T02:00:19.341Z,3.24
2023-02-06T02:02:23.620Z,3.27
2023-02-06T02:04:29.257Z,3.28
2023-02-06T02:06:32.239Z,3.26
2023-02-06T02:08:39.201Z,3.29
2023-02-06T02:10:43.250Z,3.27
2023-02-06T02:12:45.812Z,3.26
2023-02-06T02:14:50.948Z,3.27
2023-02-06T02:17:07.461Z,3.26
2023-02-06T02:19:45.455Z,3.25
2023-02-06T02:22:26.009Z,3.24
2023-02-06T02:24:54.097Z,3.25
2023-02-06T02:27:16.513Z,3.25
2023-02-06T02:29:47.016Z,3.27
2023-02-06T02:32:27.506Z,3.29
2023-02-06T02:35:29.928Z,3.29
2023-02-06T02:37:44.499Z,3.30
2023-02-06T02:39:56.275Z,3.30
2023-02-06T02:42:00.921Z,3.23
2023-02-06T02:44:08.846Z,3.25
2023-02-06T02:46:18.814Z,3.27
2023-02-06T02:48:25.525Z,3.25
2023-02-06T02:50:29.468Z,3.26
2023-02-06T02:52:32.052Z,3.24
2023-02-06T02:54:35.956Z,3.26
2023-02-06T02:56:39.659Z,3.23
2023-02-06T02:58:42.926Z,3.23
2023-02-06T03:00:49.443Z,3.25
2023-02-06T03:02:53.606Z,3.21
2023-02-06T03:04:59.913Z,3.20
2023-02-06T03:07:11.502Z,3.19
2023-02-06T03:09:23.202Z,3.20
2023-02-06T03:11:28.145Z,3.21
2023-02-06T03:13:35.486Z,3.20
2023-02-06T03:15:48.856Z,3.24
2023-02-06T03:17:57.347Z,3.24
2023-02-06T03:20:03.467Z,3.28
2023-02-06T03:22:06.748Z,3.28
2023-02-06T03:24:14.818Z,3.24
2023-02-06T03:26:21.386Z,3.24
2023-02-06T03:28:29.600Z,3.25
2023-02-06T03:30:33.926Z,3.22
2023-02-06T03:32:42.342Z,3.21
2023-02-06T03:34:52.915Z,3.25
2023-02-06T03:36:55.871Z,3.28
2023-02-06T03:38:59.033Z,3.23
2023-02-06T03:41:02.982Z,3.20
2023-02-06T03:43:06.858Z,3.19
2023-02-06T03:45:16.852Z,3.23
2023-02-06T03:47:22.018Z,3.22
2023-02-06T03:49:28.901Z,3.22
2023-02-06T03:51:36.190Z,3.24
2023-02-06T03:53:40.520Z,3.22
2023-02-06T03:55:45.618Z,3.19
2023-02-06T03:57:52.486Z,3.20
2023-02-06T03:59:55.057Z,3.21
2023-02-06T04:02:02.622Z,3.21
2023-02-06T04:04:05.720Z,3.19
2023-02-06T04:06:08.623Z,3.18
2023-02-06T04:08:11.246Z,3.19
2023-02-06T04:10:13.897Z,3.16
2023-02-06T04:12:17.017Z,3.15
2023-02-06T04:14:19.727Z,3.13
2023-02-06T04:16:22.459Z,3.13
2023-02-06T04:18:27.633Z,3.13
2023-02-06T04:20:30.615Z,3.13
2023-02-06T04:22:33.383Z,3.13
2023-02-06T04:24:36.791Z,3.12
2023-02-06T04:26:39.349Z,3.16
2023-02-06T04:28:41.925Z,3.21
2023-02-06T04:30:44.556Z,3.18
2023-02-06T04:32:47.209Z,3.20
2023-02-06T04:34:51.251Z,3.22
2023-02-06T04:36:53.821Z,3.19
2023-02-06T04:38:56.382Z,3.18
2023-02-06T04:41:03.821Z,3.20
2023-02-06T04:43:06.404Z,3.19
2023-02-06T04:45:10.320Z,3.16
2023-02-06T04:47:12.919Z,3.20
2023-02-06T04:49:16.323Z,3.17
2023-02-06T04:51:23.258Z,3.20
2023-02-06T04:53:25.824Z,3.19
2023-02-06T04:55:28.748Z,3.17
2023-02-06T04:57:31.359Z,3.15
2023-02-06T04:59:33.951Z,3.15
2023-02-06T05:01:36.589Z,3.14
2023-02-06T05:03:39.191Z,3.15
2023-02-06T05:05:41.719Z,3.15
2023-02-06T05:07:45.609Z,3.12
2023-02-06T05:09:48.149Z,3.17
2023-02-06T05:11:50.798Z,3.17
2023-02-06T05:13:53.698Z,3.14
2023-02-06T05:15:58.023Z,3.15
2023-02-06T05:18:00.658Z,3.14
2023-02-06T05:20:03.832Z,3.13
2023-02-06T05:22:06.381Z,3.16
2023-02-06T05:24:10.372Z,3.13
2023-02-06T05:26:12.993Z,3.16
2023-02-06T05:28:15.565Z,3.16
2023-02-06T05:30:19.099Z,3.17
2023-02-06T05:32:21.718Z,3.16
2023-02-06T05:34:24.425Z,3.13
2023-02-06T05:36:26.968Z,3.14
2023-02-06T05:38:29.575Z,3.13
2023-02-06T05:40:33.546Z,3.13
2023-02-06T05:42:36.341Z,3.17
2023-02-06T05:44:38.904Z,3.14
2023-02-06T05:46:41.499Z,3.09
2023-02-06T05:48:44.056Z,3.12
2023-02-06T05:50:49.230Z,3.12
2023-02-06T05:52:51.800Z,3.11
2023-02-06T05:54:54.365Z,3.15
2023-02-06T05:56:58.276Z,3.15
2023-02-06T05:59:00.849Z,3.13
2023-02-06T06:01:03.403Z,3.12
2023-02-06T06:03:05.975Z,3.09
2023-02-06T06:05:09.162Z,3.09
2023-02-06T06:07:11.770Z,3.08
2023-02-06T06:09:14.355Z,3.08
2023-02-06T06:11:16.955Z,3.11
2023-02-06T06:13:20.925Z,3.10
2023-02-06T06:15:23.612Z,3.10
2023-02-06T06:17:26.206Z,3.10
2023-02-06T06:19:28.793Z,3.10
2023-02-06T06:21:31.368Z,3.13
2023-02-06T06:23:34.040Z,3.11
2023-02-06T06:25:37.484Z,3.11
2023-02-06T06:27:40.716Z,3.13
2023-02-06T06:29:44.670Z,3.11
2023-02-06T06:31:47.353Z,3.09
2023-02-06T06:33:49.975Z,3.09
2023-02-06T06:35:52.563Z,3.09
2023-02-06T06:37:55.328Z,3.08
2023-02-06T06:39:57.976Z,3.09
2023-02-06T06:42:00.599Z,3.13
2023-02-06T06:44:03.130Z,3.12
2023-02-06T06:46:07.206Z,3.11
2023-02-06T06:48:09.930Z,3.10
2023-02-06T06:50:12.530Z,3.10
2023-02-06T06:52:24.487Z,3.07
2023-02-06T06:54:28.046Z,3.06
2023-02-06T06:56:30.633Z,3.06
2023-02-06T06:58:33.492Z,3.09
2023-02-06T07:00:37.004Z,3.08
2023-02-06T07:02:42.459Z,3.04
2023-02-06T07:04:45.172Z,3.06
2023-02-06T07:06:50.105Z,3.06
2023-02-06T07:08:52.826Z,3.04
2023-02-06T07:10:55.409Z,3.05
2023-02-06T07:12:58.029Z,3.02
2023-02-06T07:15:00.573Z,3.02
2023-02-06T07:17:03.179Z,2.98
2023-02-06T07:19:08.292Z,2.99
2023-02-06T07:21:11.486Z,3.03
2023-02-06T07:23:14.056Z,2.99
2023-02-06T07:25:17.075Z,2.98
2023-02-06T07:27:20.079Z,3.00
2023-02-06T07:29:22.618Z,2.99
2023-02-06T07:31:25.251Z,2.99
2023-02-06T07:33:30.784Z,2.99
2023-02-06T07:35:34.934Z,3.02
2023-02-06T07:37:37.549Z,2.98
2023-02-06T07:39:40.172Z,3.04
2023-02-06T07:41:42.933Z,3.02
2023-02-06T07:43:45.576Z,3.05
2023-02-06T07:45:48.214Z,3.05
2023-02-06T07:47:51.973Z,3.05
2023-02-06T07:49:54.612Z,3.08
2023-02-06T07:51:58.482Z,3.08
2023-02-06T07:54:01.088Z,3.07
2023-02-06T07:56:03.862Z,3.07
2023-02-06T07:58:06.579Z,3.07
2023-02-06T08:00:10.311Z,3.09
2023-02-06T08:02:13.177Z,3.10
2023-02-06T08:04:15.868Z,3.11
2023-02-06T08:06:19.398Z,3.12
2023-02-06T08:08:23.274Z,3.13
2023-02-06T08:10:26.304Z,3.18
2023-02-06T08:12:30.818Z,3.19
2023-02-06T08:14:33.344Z,3.17
2023-02-06T08:16:35.947Z,3.22
2023-02-06T08:18:39.400Z,3.19
2023-02-06T08:20:41.973Z,3.19
2023-02-06T08:22:44.552Z,3.13
2023-02-06T08:24:48.637Z,3.18
2023-02-06T08:26:51.300Z,3.18
2023-02-06T08:28:58.064Z,3.21
2023-02-06T08:31:00.773Z,3.21
2023-02-06T08:33:03.384Z,3.18
2023-02-06T08:35:06.618Z,3.19
2023-02-06T08:37:09.306Z,3.23
2023-02-06T08:39:14.063Z,3.25
2023-02-06T08:41:22.035Z,3.27
2023-02-06T08:43:24.699Z,3.22
2023-02-06T08:45:27.315Z,3.20
2023-02-06T08:47:29.876Z,3.22
2023-02-06T08:49:32.435Z,3.23
2023-02-06T08:51:36.766Z,3.23
2023-02-06T08:53:40.042Z,3.21
2023-02-06T08:55:42.706Z,3.24
2023-02-06T08:57:46.612Z,3.29
2023-02-06T08:59:49.615Z,3.25
2023-02-06T09:01:52.240Z,3.25
2023-02-06T09:03:55.925Z,3.21
2023-02-06T09:06:09.612Z,3.19
2023-02-06T09:08:12.692Z,3.20
2023-02-06T09:10:26.762Z,3.19
2023-02-06T09:12:30.192Z,3.24
2023-02-06T09:14:35.387Z,3.20
2023-02-06T09:16:38.486Z,3.25
2023-02-06T09:18:41.443Z,3.22
2023-02-06T09:20:46.042Z,3.24
2023-02-06T09:22:48.610Z,3.28
2023-02-06T09:24:51.288Z,3.30
2023-02-06T09:26:59.899Z,3.34
2023-02-06T09:29:05.512Z,3.30
2023-02-06T09:31:10.693Z,3.32
2023-02-06T09:33:13.401Z,3.26
2023-02-06T09:35:16.288Z,3.30
2023-02-06T09:37:18.844Z,3.25
2023-02-06T09:39:21.447Z,3.25
2023-02-06T09:41:31.033Z,3.20
2023-02-06T09:43:36.212Z,3.21
2023-02-06T09:45:40.348Z,3.25
2023-02-06T09:47:48.568Z,3.22
2023-02-06T09:49:54.845Z,3.21
2023-02-06T09:52:08.214Z,3.17
2023-02-06T09:54:23.936Z,3.18
2023-02-06T09:56:35.531Z,3.12
2023-02-06T09:58:44.240Z,3.15
2023-02-06T10:00:53.224Z,3.14
2023-02-06T10:03:13.508Z,3.15
2023-02-06T10:05:24.500Z,3.16
2023-02-06T10:07:43.537Z,3.15
2023-02-06T10:09:50.694Z,3.13
2023-02-06T10:11:56.924Z,3.17
2023-02-06T10:14:02.979Z,3.16
2023-02-06T10:16:07.758Z,3.17
2023-02-06T10:18:16.530Z,3.16
2023-02-06T10:20:22.861Z,3.15
2023-02-06T10:22:29.547Z,3.15
2023-02-06T10:24:38.016Z,3.20
2023-02-06T10:26:41.561Z,3.22
2023-02-06T10:28:48.890Z,3.21
2023-02-06T10:31:10.605Z,3.16
2023-02-06T10:33:25.568Z,3.19
2023-02-06T10:35:36.327Z,3.20
2023-02-06T10:38:04.798Z,3.21
2023-02-06T10:40:30.578Z,3.25
2023-02-06T10:42:51.122Z,3.21
2023-02-06T10:45:18.445Z,3.26
2023-02-06T10:47:32.269Z,3.19
2023-02-06T10:49:41.833Z,3.21
2023-02-06T10:51:48.447Z,3.18
2023-02-06T10:53:53.221Z,3.17
2023-02-06T10:55:58.236Z,3.18
2023-02-06T10:58:08.025Z,3.17
2023-02-06T11:00:18.438Z,3.14
2023-02-06T11:02:25.122Z,3.11
2023-02-06T11:04:34.324Z,3.12
2023-02-06T11:06:40.241Z,3.10
2023-02-06T11:08:46.002Z,3.15
2023-02-06T11:10:49.432Z,3.10
2023-02-06T11:13:00.053Z,3.11
2023-02-06T11:15:07.636Z,3.11
2023-02-06T11:17:15.207Z,3.12
2023-02-06T11:19:20.898Z,3.13
2023-02-06T11:21:53.660Z,3.11
2023-02-06T11:24:10.703Z,3.12
2023-02-06T11:26:15.725Z,3.13
2023-02-06T11:28:20.384Z,3.09
2023-02-06T11:30:30.559Z,3.12
2023-02-06T11:32:37.606Z,3.10
2023-02-06T11:34:51.842Z,3.13
2023-02-06T11:36:58.552Z,3.12
2023-02-06T11:39:03.018Z,3.10
2023-02-06T11:41:16.629Z,3.10
2023-02-06T11:43:22.479Z,3.08
2023-02-06T11:45:28.618Z,3.09
2023-02-06T11:47:33.083Z,3.12
2023-02-06T11:49:35.640Z,3.12
2023-02-06T11:51:53.762Z,3.10
2023-02-06T11:53:59.860Z,3.08
2023-02-06T11:56:06.890Z,3.07
2023-02-06T11:58:22.403Z,3.08
2023-02-06T12:00:25.339Z,3.05
2023-02-06T12:02:31.024Z,3.07
2023-02-06T12:04:37.870Z,3.02
2023-02-06T12:06:41.825Z,3.04
2023-02-06T12:08:48.316Z,3.09
2023-02-06T12:10:58.091Z,3.08
2023-02-06T12:13:07.823Z,3.16
2023-02-06T12:15:39.908Z,3.12
2023-02-06T12:17:41.770Z,3.13
2023-02-06T12:19:49.629Z,3.08
2023-02-06T12:21:55.714Z,3.06
2023-02-06T12:24:02.417Z,3.07
2023-02-06T12:26:12.186Z,3.08
2023-02-06T12:28:18.459Z,3.10
2023-02-06T12:30:31.158Z,3.11
2023-02-06T12:32:37.691Z,3.12
2023-02-06T12:34:53.528Z,3.10
2023-02-06T12:37:10.655Z,3.10
2023-02-06T12:39:19.957Z,3.06
2023-02-06T12:41:44.612Z,3.05
2023-02-06T12:43:54.611Z,3.02
2023-02-06T12:46:02.878Z,3.02
2023-02-06T12:48:12.729Z,3.03
2023-02-06T12:50:19.849Z,3.08
2023-02-06T12:52:27.479Z,3.06
2023-02-06T12:54:34.745Z,3.03
2023-02-06T12:56:42.838Z,3.04
2023-02-06T12:58:55.109Z,3.05
2023-02-06T13:01:28.829Z,3.04
2023-02-06T13:03:41.653Z,3.03
2023-02-06T13:05:47.933Z,3.08
2023-02-06T13:07:52.319Z,3.05
2023-02-06T13:10:01.750Z,3.08
2023-02-06T13:12:13.950Z,3.16
2023-02-06T13:14:20.402Z,3.03
2023-02-06T13:16:23.099Z,3.07
2023-02-06T13:18:53.816Z,3.06
2023-02-06T13:21:17.417Z,3.05
2023-02-06T13:23:24.937Z,3.06
2023-02-06T13:25:51.214Z,3.05
2023-02-06T13:27:55.654Z,3.09
2023-02-06T13:30:18.336Z,3.00
2023-02-06T13:32:53.278Z,3.03
2023-02-06T13:34:59.956Z,3.06
2023-02-06T13:37:20.990Z,3.03
2023-02-06T13:39:33.784Z,3.02
2023-02-06T13:41:37.876Z,2.96
2023-02-06T13:43:43.139Z,3.00
2023-02-06T13:45:50.093Z,3.01
2023-02-06T13:48:29.332Z,3.01
2023-02-06T13:50:59.550Z,2.99
2023-02-06T13:53:19.757Z,3.00
2023-02-06T13:55:36.473Z,3.00
2023-02-06T13:58:14.063Z,2.98
2023-02-06T14:00:21.220Z,2.94
2023-02-06T14:02:28.616Z,2.96
2023-02-06T14:04:33.341Z,2.94
2023-02-06T14:06:55.099Z,2.94
2023-02-06T14:09:10.685Z,2.87
2023-02-06T14:11:31.350Z,2.89
2023-02-06T14:13:44.635Z,2.90
2023-02-06T14:15:58.753Z,2.91
2023-02-06T14:18:16.380Z,2.95
2023-02-06T14:20:30.590Z,2.96
2023-02-06T14:22:43.659Z,2.89
2023-02-06T14:25:04.569Z,2.94
2023-02-06T14:27:24.572Z,2.91
2023-02-06T14:29:39.182Z,2.84
2023-02-06T14:32:09.267Z,2.85
2023-02-06T14:34:25.365Z,2.87
2023-02-06T14:36:46.706Z,2.85
2023-02-06T14:39:36.056Z,2.85
2023-02-06T14:41:39.711Z,2.86
2023-02-06T14:43:45.422Z,2.84
2023-02-06T14:46:05.482Z,2.87
2023-02-06T14:48:20.865Z,2.84
2023-02-06T14:50:26.667Z,2.85
2023-02-06T14:52:33.970Z,2.86
2023-02-06T14:54:39.164Z,2.89
2023-02-06T14:56:41.827Z,2.87
2023-02-06T14:58:46.402Z,2.89
2023-02-06T15:00:49.069Z,2.85
2023-02-06T15:03:04.654Z,2.89
2023-02-06T15:05:08.720Z,2.86
2023-02-06T15:07:23.077Z,2.83
2023-02-06T15:09:28.699Z,2.87
2023-02-06T15:11:33.375Z,2.85
2023-02-06T15:13:37.640Z,2.85
2023-02-06T15:15:54.247Z,2.83
2023-02-06T15:17:58.741Z,2.86
2023-02-06T15:22:31.999Z,2.87
2023-02-06T15:24:55.630Z,2.84
2023-02-06T15:27:04.658Z,2.89
2023-02-06T15:29:18.096Z,2.86
2023-02-06T15:31:23.039Z,2.89
2023-02-06T15:33:29.019Z,2.87
2023-02-06T15:35:34.074Z,2.87
2023-02-06T15:37:38.063Z,2.85
2023-02-06T15:39:40.656Z,2.90
2023-02-06T15:41:46.039Z,2.86
2023-02-06T15:43:49.475Z,2.84
2023-02-06T15:45:55.015Z,2.86
2023-02-06T15:47:59.603Z,2.85
2023-02-06T15:50:02.401Z,2.86
2023-02-06T15:52:06.237Z,2.83
2023-02-06T15:54:20.222Z,2.85
2023-02-06T15:56:26.157Z,2.87
2023-02-06T15:58:29.190Z,2.85
2023-02-06T16:00:34.370Z,2.83
2023-02-06T16:02:40.827Z,2.84
2023-02-06T16:04:43.428Z,2.82
2023-02-06T16:06:47.572Z,2.81
2023-02-06T16:08:52.458Z,2.83
2023-02-06T16:10:59.608Z,2.81
2023-02-06T16:13:03.828Z,2.80
2023-02-06T16:15:27.131Z,2.79
2023-02-06T16:17:34.123Z,2.79
2023-02-06T16:19:52.665Z,2.79
2023-02-06T16:22:05.595Z,2.79
2023-02-06T16:24:16.595Z,2.79
2023-02-06T16:26:25.716Z,2.75
2023-02-06T16:28:29.112Z,2.75
2023-02-06T16:30:36.310Z,2.75
2023-02-06T16:32:39.237Z,2.74
2023-02-06T16:34:43.433Z,2.73
2023-02-06T16:36:45.980Z,2.71
2023-02-06T16:39:02.877Z,2.74
2023-02-06T16:41:25.061Z,2.70
2023-02-06T16:43:28.684Z,2.74
2023-02-06T16:45:31.244Z,2.73
2023-02-06T16:47:33.859Z,2.74
2023-02-06T16:49:36.649Z,2.75
2023-02-06T16:51:41.078Z,2.76
2023-02-06T16:53:44.159Z,2.76
2023-02-06T16:55:46.939Z,2.75
2023-02-06T16:57:53.818Z,2.75
2023-02-06T16:59:56.712Z,2.75
2023-02-06T17:01:59.327Z,2.76
2023-02-06T17:04:01.930Z,2.76
2023-02-06T17:06:06.544Z,2.75
2023-02-06T17:08:16.012Z,2.74
2023-02-06T17:10:20.101Z,2.71
2023-02-06T17:12:23.571Z,2.64
2023-02-06T17:14:27.512Z,2.60
2023-02-06T17:16:31.938Z,2.57
2023-02-06T17:18:34.502Z,2.54
2023-02-06T17:20:39.272Z,2.57
2023-02-06T17:22:41.996Z,2.52
2023-02-06T17:24:45.599Z,2.48
2023-02-06T17:26:50.426Z,2.47
2023-02-06T17:28:53.063Z,2.47
2023-02-06T17:30:57.091Z,2.48
2023-02-06T17:32:59.819Z,2.47
2023-02-06T17:35:02.511Z,2.46
2023-02-06T17:37:09.411Z,2.49
2023-02-06T17:39:13.751Z,2.49
2023-02-06T17:41:16.329Z,2.47
2023-02-06T17:43:18.958Z,2.44
2023-02-06T17:45:21.631Z,2.45
2023-02-06T17:47:26.122Z,2.47
2023-02-06T17:49:28.718Z,2.47
2023-02-06T17:51:31.630Z,2.45
2023-02-06T17:53:34.204Z,2.43
2023-02-06T17:55:37.660Z,2.42
2023-02-06T17:57:40.526Z,2.42
2023-02-06T17:59:43.149Z,2.39
2023-02-06T18:01:45.838Z,2.40
2023-02-06T18:03:50.330Z,2.40
2023-02-06T18:05:57.961Z,2.40
2023-02-06T18:08:00.529Z,2.42
2023-02-06T18:10:03.115Z,2.41
2023-02-06T18:12:05.810Z,2.40
2023-02-06T18:14:08.418Z,2.38
2023-02-06T18:16:15.273Z,2.36
2023-02-06T18:18:18.923Z,2.31
2023-02-06T18:20:23.102Z,2.30
2023-02-06T18:22:25.810Z,2.27
2023-02-06T18:24:28.352Z,2.27
2023-02-06T18:26:30.978Z,2.26
2023-02-06T18:28:34.627Z,2.26
2023-02-06T18:30:37.483Z,2.24
2023-02-06T18:32:40.317Z,2.26
2023-02-06T18:34:42.876Z,2.28
2023-02-06T18:36:46.864Z,2.33
2023-02-06T18:38:49.463Z,2.33
2023-02-06T18:40:52.021Z,2.34
2023-02-06T18:42:54.612Z,2.37
2023-02-06T18:44:57.328Z,2.36
2023-02-06T18:46:59.899Z,2.36
2023-02-06T18:49:02.798Z,2.32
2023-02-06T18:51:08.385Z,2.29
2023-02-06T18:53:12.507Z,2.30
2023-02-06T18:55:15.303Z,2.30
2023-02-06T18:57:18.151Z,2.29
2023-02-06T18:59:20.809Z,2.28
2023-02-06T19:01:25.470Z,2.31
2023-02-06T19:03:28.014Z,2.31
2023-02-06T19:05:30.752Z,2.34
2023-02-06T19:07:33.391Z,2.36
2023-02-06T19:09:37.335Z,2.36
2023-02-06T19:11:41.211Z,2.37
2023-02-06T19:13:44.151Z,2.38
2023-02-06T19:15:46.782Z,2.41
2023-02-06T19:17:50.349Z,2.40
2023-02-06T19:19:53.268Z,2.39
2023-02-06T19:21:56.604Z,2.38
2023-02-06T19:24:01.997Z,2.39
2023-02-06T19:26:08.819Z,2.37
2023-02-06T19:28:11.381Z,2.36
2023-02-06T19:30:14.881Z,2.37
2023-02-06T19:32:17.505Z,2.39
2023-02-06T19:34:20.184Z,2.38
2023-02-06T19:36:24.709Z,2.37
2023-02-06T19:38:27.291Z,2.38
2023-02-06T19:40:29.887Z,2.37
2023-02-06T19:42:33.821Z,2.42
2023-02-06T19:44:37.204Z,2.39
2023-02-06T19:46:39.846Z,2.41
2023-02-06T19:48:44.202Z,2.42
2023-02-06T19:50:46.855Z,2.44
2023-02-06T19:52:49.424Z,2.43
2023-02-06T19:54:52.000Z,2.43
2023-02-06T19:56:55.122Z,2.44
2023-02-06T19:59:01.071Z,2.43
2023-02-06T20:01:08.775Z,2.38
2023-02-06T20:03:11.495Z,2.38
2023-02-06T20:05:14.080Z,2.37
2023-02-06T20:07:16.722Z,2.36
2023-02-06T20:09:21.170Z,2.36
2023-02-06T20:11:24.246Z,2.35
2023-02-06T20:13:26.894Z,2.37
2023-02-06T20:15:31.922Z,2.38
2023-02-06T20:17:34.534Z,2.36
2023-02-06T20:19:37.201Z,2.35
2023-02-06T20:21:41.921Z,2.32
2023-02-06T20:23:44.453Z,2.32
2023-02-06T20:25:47.265Z,2.35
2023-02-06T20:27:49.903Z,2.31
2023-02-06T20:29:52.510Z,2.26
2023-02-06T20:31:56.725Z,2.24
2023-02-06T20:33:59.348Z,2.21
2023-02-06T20:36:06.204Z,2.21
2023-02-06T20:38:08.987Z,2.16
2023-02-06T20:40:11.933Z,2.16
2023-02-06T20:42:15.355Z,2.15
2023-02-06T20:44:18.971Z,2.11
2023-02-06T20:46:21.664Z,2.11
2023-02-06T20:48:26.099Z,2.08
2023-02-06T20:50:30.084Z,2.04
2023-02-06T20:52:33.069Z,2.05
2023-02-06T20:54:35.669Z,2.08
2023-02-06T20:56:38.680Z,2.07
2023-02-06T20:58:41.255Z,2.07
2023-02-06T21:00:43.838Z,2.07
2023-02-06T21:02:46.854Z,2.07
2023-02-06T21:04:52.274Z,2.10
2023-02-06T21:06:55.445Z,2.06
2023-02-06T21:09:00.199Z,2.10
2023-02-06T21:11:03.357Z,2.07
2023-02-06T21:13:05.895Z,2.07
2023-02-06T21:15:09.443Z,2.04
2023-02-06T21:17:12.047Z,2.04
2023-02-06T21:19:20.650Z,2.13
2023-02-06T21:21:25.507Z,2.08
2023-02-06T21:23:28.171Z,2.13
2023-02-06T21:25:30.732Z,2.08
2023-02-06T21:27:33.597Z,2.08
2023-02-06T21:29:36.208Z,2.06
2023-02-06T21:31:39.158Z,2.10
2023-02-06T21:33:41.976Z,2.06
2023-02-06T21:35:50.845Z,2.09
2023-02-06T21:37:54.897Z,2.08
2023-02-06T21:39:57.457Z,2.02
2023-02-06T21:42:01.586Z,2.03
2023-02-06T21:44:04.431Z,2.03
2023-02-06T21:46:07.662Z,2.06
2023-02-06T21:48:10.284Z,2.04
2023-02-06T21:50:12.850Z,2.07
2023-02-06T21:52:15.414Z,2.11
2023-02-06T21:54:19.732Z,2.09
2023-02-06T21:56:24.755Z,2.08
2023-02-06T21:58:27.337Z,2.09
2023-02-06T22:00:29.998Z,2.08
2023-02-06T22:02:35.146Z,2.12
2023-02-06T22:04:37.775Z,2.12
2023-02-06T22:06:40.819Z,2.24
2023-02-06T22:08:47.932Z,2.25
2023-02-06T22:10:51.904Z,2.10
2023-02-06T22:12:55.274Z,2.09
2023-02-06T22:14:57.901Z,2.03
2023-02-06T22:17:00.456Z,2.04
2023-02-06T22:19:03.377Z,2.02
2023-02-06T22:21:07.888Z,1.98
2023-02-06T22:23:10.506Z,1.95
2023-02-06T22:25:13.141Z,1.95
2023-02-06T22:27:17.391Z,1.91
2023-02-06T22:29:20.050Z,1.90
2023-02-06T22:31:25.523Z,1.92
2023-02-06T22:33:28.140Z,1.91
2023-02-06T22:35:30.736Z,1.90
2023-02-06T22:37:34.305Z,1.86
2023-02-06T22:39:36.929Z,1.88
2023-02-06T22:41:40.712Z,1.87
2023-02-06T22:43:46.365Z,1.84
2023-02-06T22:45:50.534Z,1.83
2023-02-06T22:47:53.188Z,1.77
2023-02-06T22:49:55.815Z,1.76
2023-02-06T22:51:58.773Z,1.73
2023-02-06T22:54:00.633Z,1.73
2023-02-06T22:56:23.410Z,1.71
2023-02-06T22:58:26.166Z,1.72
2023-02-06T23:00:30.198Z,1.71
2023-02-06T23:02:32.838Z,1.69
2023-02-06T23:04:36.232Z,1.66
2023-02-06T23:06:38.833Z,1.64
2023-02-06T23:08:42.502Z,1.63
2023-02-06T23:10:47.362Z,1.60
2023-02-06T23:12:49.950Z,1.54
2023-02-06T23:14:52.589Z,1.51
2023-02-06T23:16:57.033Z,1.47
2023-02-06T23:19:01.760Z,1.38
2023-02-06T23:21:07.602Z,1.36
2023-02-06T23:23:10.196Z,1.37
2023-02-06T23:25:12.788Z,1.38
2023-02-06T23:27:15.422Z,1.35
2023-02-06T23:29:19.149Z,1.36
2023-02-06T23:31:21.714Z,1.38
2023-02-06T23:33:25.781Z,1.35
2023-02-06T23:35:28.306Z,1.32
2023-02-06T23:37:30.896Z,1.25
2023-02-06T23:39:35.586Z,1.29
2023-02-06T23:41:38.167Z,1.25
2023-02-06T23:43:41.171Z,1.23
2023-02-06T23:45:43.759Z,1.17
2023-02-06T23:47:46.679Z,1.21
2023-02-06T23:49:50.609Z,1.18
2023-02-06T23:51:53.148Z,1.16
2023-02-06T23:53:55.775Z,1.16
2023-02-06T23:55:58.612Z,1.08
2023-02-06T23:58:01.184Z,1.10
